aviador You're here:

DABC Decoded Metar

CONSTANTINE in ALGERIA
Report Time2018-01-23 05:30:00
UTC Time2018-01-23 05:51:26
Flight Rules vfr VFR
WindCalm
Visibility9999 m
Phenomena:N/A
Clouds:N/A
Expected CloudBase > 400 ft AGL from Temp-Dew spread
CeilingNone
Temp04°C (ISA -6)
Dew Point03°C (93% RH)
AAT2.5°C
QNH1025 hPa
Density Alt1,204 ft
Elevation2,277 ft
Report Wrong Elevation
Raw Report
DABC 230530Z 00000KT CAVOK 04/03 Q1025=

Extra information for DABC:More info

Metar Taf Metar & Taf Last 4 Metars F.Rules Stats Wind Profile Meteogram Temp Stats Airport Information Weather charts Add Link Nearby VenuesMetar ALERT Operation Metar Decoded Social comments